Time;durP1;ratioP1;P1;durP2;ratioP2;P2;SDS_P1;SDS_P2;PMS_P1;PMS_P2;Temp;Humidity;BMP_temperature;BMP_pressure;BME280_temperature;BME280_humidity;BME280_pressure;Samples;Min_cycle;Max_cycle;Signal;HPM_P1;HPM_P2
2022/03/23 00:00:22;;;;;;;;;;;10.80;67.90;;;;;;4996760;28;20326;-67
2022/03/23 00:02:48;;;;;;;;;;;10.80;68.20;;;;;;4996717;28;20374;-67
2022/03/23 00:05:16;;;;;;;;;;;10.60;68.50;;;;;;5013793;28;20374;-66
2022/03/23 00:07:43;;;;;;;;;;;10.70;68.70;;;;;;4996481;28;19920;-67
2022/03/23 00:10:09;;;;;;;;;;;10.70;68.50;;;;;;5012499;28;20012;-66
2022/03/23 00:12:34;;;;;;;;;;;10.80;68.50;;;;;;4996497;28;20280;-66
2022/03/23 00:15:00;;;;;;;;;;;10.70;68.40;;;;;;5013522;28;20263;-67
2022/03/23 00:17:26;;;;;;;;;;;10.70;68.10;;;;;;5014115;28;20317;-67
2022/03/23 00:19:51;;;;;;;;;;;10.70;68.00;;;;;;5013719;28;19925;-68
2022/03/23 00:22:17;;;;;;;;;;;10.60;68.50;;;;;;4995491;28;19920;-66
2022/03/23 00:24:42;;;;;;;;;;;10.60;68.80;;;;;;4995899;28;19979;-67
2022/03/23 00:27:09;;;;;;;;;;;10.60;68.70;;;;;;4995450;28;19929;-66
2022/03/23 00:29:35;;;;;;;;;;;10.50;68.60;;;;;;4996142;28;19917;-67
2022/03/23 00:32:01;;;;;;;;;;;10.50;68.50;;;;;;4995578;28;19909;-67
2022/03/23 00:34:26;;;;;;;;;;;10.50;68.80;;;;;;4996146;28;19910;-67
2022/03/23 00:36:52;;;;;;;;;;;10.40;68.80;;;;;;5013886;28;19913;-66
2022/03/23 00:39:20;;;;;;;;;;;10.20;68.80;;;;;;4995549;28;20271;-66
2022/03/23 00:41:49;;;;;;;;;;;10.30;68.70;;;;;;5013589;28;20279;-67
2022/03/23 00:44:15;;;;;;;;;;;10.30;68.90;;;;;;5012701;28;19936;-67
2022/03/23 00:46:40;;;;;;;;;;;10.30;68.90;;;;;;5013782;28;19910;-68
2022/03/23 00:49:09;;;;;;;;;;;10.20;68.80;;;;;;5012818;28;19909;-66
2022/03/23 00:51:35;;;;;;;;;;;10.20;69.00;;;;;;4995856;28;20008;-66
2022/03/23 00:54:00;;;;;;;;;;;10.10;69.30;;;;;;4994901;28;19961;-67
2022/03/23 00:56:26;;;;;;;;;;;10.10;69.70;;;;;;5012984;28;19913;-67
2022/03/23 00:58:52;;;;;;;;;;;10.00;69.80;;;;;;4995540;28;19920;-66
2022/03/23 01:01:17;;;;;;;;;;;9.90;69.80;;;;;;5012594;28;19913;-66
2022/03/23 01:03:43;;;;;;;;;;;10.00;70.60;;;;;;5013420;28;19913;-67
2022/03/23 01:06:08;;;;;;;;;;;9.80;70.10;;;;;;5012333;28;19917;-66
2022/03/23 01:08:34;;;;;;;;;;;9.80;70.60;;;;;;4995201;28;19910;-69
2022/03/23 01:11:00;;;;;;;;;;;9.80;71.20;;;;;;4994877;28;20356;-68
2022/03/23 01:13:25;;;;;;;;;;;9.80;71.20;;;;;;5012933;28;20312;-66
2022/03/23 01:15:51;;;;;;;;;;;9.80;71.30;;;;;;4995219;28;20256;-67
2022/03/23 01:18:17;;;;;;;;;;;9.80;71.40;;;;;;4994625;28;19910;-67
2022/03/23 01:20:42;;;;;;;;;;;9.70;71.90;;;;;;4995257;28;19909;-67
2022/03/23 01:23:08;;;;;;;;;;;9.70;72.00;;;;;;5012034;28;19910;-67
2022/03/23 01:25:34;;;;;;;;;;;9.80;72.00;;;;;;5012770;28;19922;-67
2022/03/23 01:27:59;;;;;;;;;;;9.70;72.40;;;;;;4993900;28;19929;-67
2022/03/23 01:30:26;;;;;;;;;;;9.60;72.50;;;;;;5012027;28;20083;-67
2022/03/23 01:32:52;;;;;;;;;;;9.60;72.90;;;;;;5013141;28;19914;-67
2022/03/23 01:35:18;;;;;;;;;;;9.50;72.60;;;;;;4994375;28;19952;-67
2022/03/23 01:37:43;;;;;;;;;;;9.50;72.80;;;;;;4994900;28;20374;-66
2022/03/23 01:40:11;;;;;;;;;;;9.40;73.00;;;;;;5012369;28;19909;-67
2022/03/23 01:42:37;;;;;;;;;;;9.40;72.90;;;;;;4995216;28;19910;-66
2022/03/23 01:45:04;;;;;;;;;;;9.50;72.90;;;;;;4994274;28;19979;-66
2022/03/23 01:47:29;;;;;;;;;;;9.40;72.70;;;;;;5012592;28;19913;-66
2022/03/23 01:49:56;;;;;;;;;;;9.40;72.60;;;;;;4994648;28;19932;-67
2022/03/23 01:52:22;;;;;;;;;;;9.40;72.80;;;;;;4993666;28;19909;-66
2022/03/23 01:54:48;;;;;;;;;;;9.30;72.50;;;;;;4993938;28;19913;-67
2022/03/23 01:57:15;;;;;;;;;;;9.30;72.50;;;;;;4993898;28;19914;-67
2022/03/23 01:59:40;;;;;;;;;;;9.20;72.30;;;;;;5012131;28;19910;-67
2022/03/23 02:02:08;;;;;;;;;;;9.30;72.60;;;;;;4993904;28;20534;-67
2022/03/23 02:04:33;;;;;;;;;;;9.30;72.20;;;;;;5012173;28;20235;-66
2022/03/23 02:06:59;;;;;;;;;;;9.30;71.90;;;;;;5011584;28;19914;-67
2022/03/23 02:09:26;;;;;;;;;;;9.30;72.10;;;;;;4994284;28;19909;-66
2022/03/23 02:11:52;;;;;;;;;;;9.20;72.20;;;;;;5012083;28;20374;-67
2022/03/23 02:14:18;;;;;;;;;;;9.20;72.30;;;;;;4993787;28;20377;-66
2022/03/23 02:16:44;;;;;;;;;;;9.20;72.80;;;;;;5011677;28;19910;-66
2022/03/23 02:19:10;;;;;;;;;;;9.30;72.60;;;;;;5011315;28;19910;-67
2022/03/23 02:21:36;;;;;;;;;;;9.20;72.70;;;;;;4994389;28;19960;-66
2022/03/23 02:24:03;;;;;;;;;;;9.20;73.00;;;;;;4993474;28;19918;-67
2022/03/23 02:26:29;;;;;;;;;;;9.10;73.00;;;;;;5011374;28;19918;-67
2022/03/23 02:28:55;;;;;;;;;;;9.10;73.20;;;;;;5011559;28;19923;-67
2022/03/23 02:31:20;;;;;;;;;;;9.00;73.50;;;;;;4993431;28;19971;-66
2022/03/23 02:33:46;;;;;;;;;;;9.00;73.30;;;;;;5011427;28;19909;-66
2022/03/23 02:36:11;;;;;;;;;;;9.00;73.80;;;;;;5010857;28;20000;-66
2022/03/23 02:38:37;;;;;;;;;;;9.00;73.70;;;;;;4994016;28;19917;-66
2022/03/23 02:41:03;;;;;;;;;;;8.80;73.20;;;;;;4993387;28;20017;-67
2022/03/23 02:43:29;;;;;;;;;;;8.60;73.90;;;;;;5011749;28;19910;-66
2022/03/23 02:45:54;;;;;;;;;;;8.70;74.20;;;;;;5011354;28;20012;-66
2022/03/23 02:48:20;;;;;;;;;;;8.70;74.20;;;;;;5010863;28;19971;-66
2022/03/23 02:50:46;;;;;;;;;;;8.60;74.40;;;;;;5011440;28;19914;-66
2022/03/23 03:01:54;;;;;;;;;;;8.60;73.70;;;;;;5011682;28;20377;-65
2022/03/23 03:04:20;;;;;;;;;;;8.60;73.90;;;;;;5011151;28;19976;-66
2022/03/23 03:06:46;;;;;;;;;;;8.50;73.90;;;;;;4995118;28;19991;-65
2022/03/23 03:09:12;;;;;;;;;;;8.60;73.40;;;;;;4997109;28;20114;-66
2022/03/23 03:11:38;;;;;;;;;;;8.40;73.90;;;;;;4997501;28;20331;-66
2022/03/23 03:14:04;;;;;;;;;;;8.50;74.00;;;;;;5014645;28;19910;-67
2022/03/23 03:16:29;;;;;;;;;;;8.40;73.90;;;;;;4997677;28;20015;-66
2022/03/23 03:18:55;;;;;;;;;;;8.50;74.10;;;;;;5015180;28;19917;-67
2022/03/23 03:21:20;;;;;;;;;;;8.50;73.80;;;;;;5014524;28;19964;-66
2022/03/23 03:23:46;;;;;;;;;;;8.60;74.10;;;;;;5015086;28;20355;-66
2022/03/23 03:26:13;;;;;;;;;;;8.50;73.30;;;;;;5014291;28;19936;-66
2022/03/23 03:28:40;;;;;;;;;;;8.50;73.60;;;;;;5015250;28;19922;-66
2022/03/23 03:34:15;;;;;;;;;;;8.40;73.80;;;;;;5014170;28;20007;-66
2022/03/23 03:36:41;;;;;;;;;;;8.40;74.10;;;;;;4997370;28;19910;-66
2022/03/23 03:39:06;;;;;;;;;;;8.40;73.80;;;;;;4996518;28;19909;-67
2022/03/23 03:41:32;;;;;;;;;;;8.40;74.10;;;;;;5014569;28;20111;-66
2022/03/23 03:43:57;;;;;;;;;;;8.30;74.00;;;;;;4997190;28;20019;-66
2022/03/23 03:46:24;;;;;;;;;;;8.20;74.40;;;;;;4996540;28;20334;-68
2022/03/23 03:48:50;;;;;;;;;;;8.30;74.20;;;;;;4997184;28;19964;-66
2022/03/23 03:51:15;;;;;;;;;;;8.30;74.30;;;;;;5014446;28;19909;-67
2022/03/23 03:53:42;;;;;;;;;;;8.30;74.80;;;;;;5014786;28;19917;-66
2022/03/23 03:56:08;;;;;;;;;;;8.20;74.20;;;;;;4996273;28;20378;-68
2022/03/23 03:58:34;;;;;;;;;;;8.30;74.30;;;;;;4996998;28;19910;-67
2022/03/23 04:00:59;;;;;;;;;;;8.30;74.20;;;;;;4996866;28;19909;-66
2022/03/23 04:03:26;;;;;;;;;;;8.10;74.70;;;;;;4995963;28;20058;-66
2022/03/23 04:05:51;;;;;;;;;;;8.10;75.10;;;;;;4996764;28;20224;-66
2022/03/23 04:08:17;;;;;;;;;;;8.10;75.40;;;;;;4996108;28;19910;-67
2022/03/23 04:10:42;;;;;;;;;;;8.00;75.50;;;;;;4996377;28;20044;-67
2022/03/23 04:13:08;;;;;;;;;;;8.00;75.50;;;;;;4991707;28;19920;-67
2022/03/23 04:15:34;;;;;;;;;;;8.00;75.60;;;;;;5014105;28;19909;-66
2022/03/23 04:18:00;;;;;;;;;;;8.00;75.70;;;;;;4995781;28;19913;-66
2022/03/23 04:20:25;;;;;;;;;;;8.00;75.80;;;;;;5013872;28;19964;-66
2022/03/23 04:22:51;;;;;;;;;;;8.00;75.90;;;;;;5014261;28;20252;-66
2022/03/23 04:25:17;;;;;;;;;;;7.90;76.10;;;;;;4995293;28;20064;-66
2022/03/23 04:27:50;;;;;;;;;;;7.80;76.60;;;;;;5014205;28;19980;-67
2022/03/23 04:30:17;;;;;;;;;;;8.00;76.30;;;;;;4995757;28;19916;-66
2022/03/23 04:32:44;;;;;;;;;;;8.00;76.20;;;;;;4996101;28;19909;-66
2022/03/23 04:35:09;;;;;;;;;;;7.80;77.00;;;;;;5013617;28;19979;-68
2022/03/23 04:37:35;;;;;;;;;;;7.80;77.40;;;;;;5014186;28;20346;-64
2022/03/23 04:40:01;;;;;;;;;;;7.90;77.40;;;;;;5013402;28;20347;-66
2022/03/23 04:42:26;;;;;;;;;;;7.80;77.50;;;;;;4995451;28;19909;-66
2022/03/23 04:44:52;;;;;;;;;;;7.90;77.70;;;;;;4995908;28;19922;-66
2022/03/23 04:47:17;;;;;;;;;;;7.80;78.50;;;;;;5012808;28;19913;-67
2022/03/23 04:49:43;;;;;;;;;;;7.80;78.30;;;;;;5013476;28;19968;-66
2022/03/23 04:52:08;;;;;;;;;;;7.70;78.60;;;;;;4995384;28;19917;-67
2022/03/23 04:54:34;;;;;;;;;;;7.80;78.70;;;;;;5013310;28;19913;-66
2022/03/23 04:56:59;;;;;;;;;;;7.70;78.90;;;;;;5013524;28;20290;-66
2022/03/23 04:59:27;;;;;;;;;;;7.60;79.10;;;;;;4994811;28;19916;-67
2022/03/23 05:01:52;;;;;;;;;;;7.60;79.80;;;;;;5013236;28;19960;-66
2022/03/23 05:04:18;;;;;;;;;;;7.60;80.00;;;;;;4994753;28;20314;-66
2022/03/23 05:06:43;;;;;;;;;;;7.60;80.10;;;;;;4995395;28;19988;-67
2022/03/23 05:09:09;;;;;;;;;;;7.60;80.10;;;;;;5013352;28;19909;-66
2022/03/23 05:11:35;;;;;;;;;;;7.60;80.20;;;;;;4994998;28;19909;-67
2022/03/23 05:14:00;;;;;;;;;;;7.60;80.30;;;;;;5012777;28;19909;-66
2022/03/23 05:16:26;;;;;;;;;;;7.50;80.50;;;;;;5012025;28;20012;-66
2022/03/23 05:18:51;;;;;;;;;;;7.40;80.30;;;;;;5012942;28;19979;-67
2022/03/23 05:21:17;;;;;;;;;;;7.50;80.40;;;;;;4994601;28;19920;-67
2022/03/23 05:23:43;;;;;;;;;;;7.40;80.40;;;;;;4995203;28;19914;-66
2022/03/23 05:26:09;;;;;;;;;;;7.40;80.50;;;;;;5012420;28;20071;-66
2022/03/23 05:28:35;;;;;;;;;;;7.40;80.00;;;;;;4991116;28;20055;-66
2022/03/23 05:31:00;;;;;;;;;;;7.40;80.10;;;;;;4992134;28;19960;-66
2022/03/23 05:33:26;;;;;;;;;;;7.40;79.70;;;;;;4992243;28;20033;-66
2022/03/23 05:35:51;;;;;;;;;;;7.50;79.80;;;;;;4991708;28;19917;-66
2022/03/23 05:38:17;;;;;;;;;;;7.40;80.10;;;;;;4990934;28;19917;-66
2022/03/23 05:40:42;;;;;;;;;;;7.30;80.70;;;;;;4991311;28;19921;-66
2022/03/23 05:43:08;;;;;;;;;;;7.20;81.20;;;;;;4991295;28;19972;-67
2022/03/23 05:45:35;;;;;;;;;;;7.20;81.70;;;;;;4991909;28;20020;-66
2022/03/23 05:48:01;;;;;;;;;;;7.30;82.00;;;;;;4991437;28;20297;-67
2022/03/23 05:50:26;;;;;;;;;;;7.20;82.50;;;;;;4990449;28;19910;-68
2022/03/23 05:52:52;;;;;;;;;;;7.20;82.40;;;;;;4991107;28;19996;-66
2022/03/23 05:55:18;;;;;;;;;;;7.30;82.60;;;;;;4990586;28;19924;-67
2022/03/23 05:57:43;;;;;;;;;;;7.30;83.00;;;;;;4991102;28;19926;-67
2022/03/23 06:00:09;;;;;;;;;;;7.30;82.90;;;;;;4992690;28;19910;-66
2022/03/23 06:02:35;;;;;;;;;;;7.30;83.20;;;;;;4990483;28;19985;-66
2022/03/23 06:05:01;;;;;;;;;;;7.10;83.40;;;;;;4992040;28;19925;-66
2022/03/23 06:07:26;;;;;;;;;;;6.90;83.80;;;;;;4990461;28;19910;-65
2022/03/23 06:09:52;;;;;;;;;;;6.90;83.70;;;;;;4991190;28;19955;-67
2022/03/23 06:12:17;;;;;;;;;;;7.10;83.30;;;;;;4992176;28;19957;-65
2022/03/23 06:14:44;;;;;;;;;;;7.10;83.00;;;;;;4990990;28;19964;-67
2022/03/23 06:17:10;;;;;;;;;;;7.20;83.40;;;;;;4990722;28;20299;-66
2022/03/23 06:19:36;;;;;;;;;;;7.20;82.80;;;;;;4990003;28;19917;-66
2022/03/23 06:22:02;;;;;;;;;;;7.30;82.40;;;;;;4990338;28;19910;-66
2022/03/23 06:24:27;;;;;;;;;;;7.40;82.10;;;;;;4991677;28;19921;-66
2022/03/23 06:26:53;;;;;;;;;;;7.40;81.60;;;;;;4996981;28;19926;-66
2022/03/23 06:29:18;;;;;;;;;;;7.50;81.00;;;;;;4993216;28;19910;-67
2022/03/23 06:31:44;;;;;;;;;;;7.60;80.40;;;;;;4994227;28;20114;-66
2022/03/23 06:34:10;;;;;;;;;;;7.70;80.00;;;;;;4992068;28;20040;-67
2022/03/23 06:36:36;;;;;;;;;;;7.70;79.50;;;;;;4983373;28;19945;-66
2022/03/23 06:39:02;;;;;;;;;;;7.70;78.60;;;;;;4977285;28;19968;-66
2022/03/23 06:41:28;;;;;;;;;;;7.60;78.90;;;;;;4993835;28;19910;-66
2022/03/23 06:43:53;;;;;;;;;;;7.60;78.90;;;;;;4997602;28;19910;-66
2022/03/23 06:46:19;;;;;;;;;;;7.70;79.20;;;;;;4993197;28;19929;-66
2022/03/23 06:48:47;;;;;;;;;;;7.80;78.80;;;;;;4993298;28;20346;-66
2022/03/23 06:51:13;;;;;;;;;;;7.80;78.20;;;;;;5001682;28;20247;-67
2022/03/23 06:53:38;;;;;;;;;;;7.80;78.30;;;;;;4987086;28;20378;-67
2022/03/23 06:56:04;;;;;;;;;;;8.00;77.70;;;;;;4985313;28;19924;-68
2022/03/23 06:58:30;;;;;;;;;;;8.30;77.00;;;;;;4985855;28;19918;-66
2022/03/23 07:00:57;;;;;;;;;;;8.50;76.00;;;;;;4986753;28;19964;-66
2022/03/23 07:03:23;;;;;;;;;;;8.70;74.80;;;;;;4980706;28;19918;-66
2022/03/23 07:05:49;;;;;;;;;;;9.00;73.40;;;;;;4996978;28;19921;-67
2022/03/23 07:10:58;;;;;;;;;;;9.10;73.00;;;;;;5004986;28;19920;-68
2022/03/23 07:13:24;;;;;;;;;;;9.50;72.40;;;;;;5004260;28;19909;-67
2022/03/23 07:15:49;;;;;;;;;;;10.10;71.30;;;;;;5006195;28;19914;-67
2022/03/23 07:18:15;;;;;;;;;;;10.30;70.30;;;;;;4982880;28;19909;-68
2022/03/23 07:20:41;;;;;;;;;;;10.50;69.90;;;;;;5005400;28;19920;-67
2022/03/23 07:23:07;;;;;;;;;;;10.70;69.10;;;;;;4996830;28;19972;-67
2022/03/23 07:25:32;;;;;;;;;;;10.80;68.40;;;;;;4995984;28;19929;-66
2022/03/23 07:27:58;;;;;;;;;;;11.10;68.20;;;;;;4996864;28;19928;-67
2022/03/23 07:30:24;;;;;;;;;;;11.10;67.10;;;;;;4996333;28;19920;-66
2022/03/23 07:32:52;;;;;;;;;;;10.50;68.40;;;;;;4984839;28;19921;-67
2022/03/23 07:35:18;;;;;;;;;;;11.00;68.50;;;;;;4994756;28;20008;-67
2022/03/23 07:37:43;;;;;;;;;;;11.00;68.10;;;;;;5011629;28;20000;-65
2022/03/23 07:40:09;;;;;;;;;;;11.20;67.70;;;;;;4988588;28;19965;-66
2022/03/23 07:42:34;;;;;;;;;;;11.10;67.90;;;;;;5003860;28;19932;-66
2022/03/23 07:45:00;;;;;;;;;;;11.60;67.30;;;;;;4992939;28;19999;-70
2022/03/23 07:47:26;;;;;;;;;;;12.10;72.10;;;;;;4994940;28;19913;-72
2022/03/23 07:49:51;;;;;;;;;;;12.50;67.50;;;;;;4990190;28;19924;-69
2022/03/23 07:52:18;;;;;;;;;;;12.90;80.00;;;;;;4986879;28;19921;-73
2022/03/23 07:54:44;;;;;;;;;;;13.00;74.80;;;;;;4981873;28;20359;-68
2022/03/23 07:57:09;;;;;;;;;;;13.10;66.50;;;;;;4985749;28;19983;-65
2022/03/23 07:59:35;;;;;;;;;;;13.10;64.50;;;;;;4983826;28;20366;-66
2022/03/23 08:02:00;;;;;;;;;;;12.80;64.50;;;;;;4985095;28;19913;-66
2022/03/23 08:04:26;;;;;;;;;;;12.90;65.20;;;;;;5002998;28;20036;-66
2022/03/23 08:06:51;;;;;;;;;;;12.80;65.00;;;;;;5001918;28;20379;-66
2022/03/23 08:09:17;;;;;;;;;;;13.20;64.60;;;;;;4982227;28;20025;-68
2022/03/23 08:11:42;;;;;;;;;;;13.20;64.60;;;;;;4985712;28;19944;-68
2022/03/23 08:14:08;;;;;;;;;;;13.80;63.90;;;;;;4998922;28;19913;-67
2022/03/23 08:16:33;;;;;;;;;;;13.80;63.40;;;;;;4978926;28;19960;-66
2022/03/23 08:18:59;;;;;;;;;;;14.00;63.30;;;;;;4983070;28;20000;-68
2022/03/23 08:21:26;;;;;;;;;;;14.60;62.40;;;;;;4993059;28;19940;-69
2022/03/23 08:23:52;;;;;;;;;;;14.80;61.80;;;;;;4989277;28;20434;-66
2022/03/23 08:26:18;;;;;;;;;;;14.30;62.00;;;;;;4975586;28;19988;-65
2022/03/23 08:28:44;;;;;;;;;;;14.60;61.60;;;;;;4990047;28;19956;-66
2022/03/23 08:31:10;;;;;;;;;;;14.00;63.30;;;;;;4990990;28;19920;-66
2022/03/23 08:33:36;;;;;;;;;;;14.60;62.90;;;;;;5008073;28;19917;-68
2022/03/23 08:36:02;;;;;;;;;;;14.40;63.10;;;;;;5008516;28;20008;-69
2022/03/23 08:38:28;;;;;;;;;;;14.60;61.70;;;;;;4989683;28;19929;-67
2022/03/23 08:40:54;;;;;;;;;;;14.40;61.90;;;;;;5008783;28;19913;-69
2022/03/23 08:43:19;;;;;;;;;;;15.40;74.80;;;;;;4990130;28;20228;-68
2022/03/23 08:45:45;;;;;;;;;;;16.20;67.30;;;;;;4990769;28;19924;-67
2022/03/23 08:48:10;;;;;;;;;;;16.20;70.20;;;;;;4990111;28;20326;-67
2022/03/23 08:50:36;;;;;;;;;;;16.80;66.70;;;;;;4985969;28;20315;-68
2022/03/23 08:53:02;;;;;;;;;;;15.80;61.30;;;;;;4981128;28;20399;-68
2022/03/23 08:55:28;;;;;;;;;;;16.40;60.40;;;;;;4978588;28;19917;-68
2022/03/23 08:57:55;;;;;;;;;;;16.90;67.90;;;;;;4987733;28;19933;-67
2022/03/23 09:00:20;;;;;;;;;;;17.10;69.70;;;;;;4986090;28;19953;-67
2022/03/23 09:02:46;;;;;;;;;;;17.80;62.60;;;;;;4989517;28;19983;-67
2022/03/23 09:05:14;;;;;;;;;;;18.00;62.20;;;;;;5002538;28;20363;-68
2022/03/23 09:07:42;;;;;;;;;;;17.40;58.00;;;;;;4981198;28;20268;-68
2022/03/23 09:10:09;;;;;;;;;;;16.90;58.40;;;;;;4982053;28;20355;-67
2022/03/23 09:12:34;;;;;;;;;;;17.30;58.50;;;;;;4970221;28;19925;-67
2022/03/23 09:15:00;;;;;;;;;;;17.80;58.00;;;;;;4970711;28;19910;-67
2022/03/23 09:17:25;;;;;;;;;;;18.50;57.10;;;;;;4999916;28;19910;-66
2022/03/23 09:19:51;;;;;;;;;;;18.70;56.00;;;;;;4984203;28;19918;-66
2022/03/23 09:22:17;;;;;;;;;;;19.20;55.60;;;;;;4986813;28;20004;-69
2022/03/23 09:24:42;;;;;;;;;;;19.00;54.90;;;;;;4985182;28;19922;-67
2022/03/23 09:27:08;;;;;;;;;;;18.30;56.10;;;;;;5014915;28;20331;-66
2022/03/23 09:29:34;;;;;;;;;;;18.20;56.60;;;;;;5002639;28;19910;-66
2022/03/23 09:31:59;;;;;;;;;;;18.40;56.10;;;;;;4983849;28;19913;-67
2022/03/23 09:34:25;;;;;;;;;;;18.70;55.90;;;;;;4980004;28;20393;-66
2022/03/23 09:39:35;;;;;;;;;;;19.40;53.90;;;;;;5001251;28;19921;-66
2022/03/23 09:42:01;;;;;;;;;;;19.70;54.20;;;;;;5004902;28;19958;-67
2022/03/23 09:44:30;;;;;;;;;;;20.00;53.60;;;;;;4979633;28;19909;-66
2022/03/23 09:46:56;;;;;;;;;;;20.20;54.10;;;;;;4989450;28;19914;-65
2022/03/23 09:49:22;;;;;;;;;;;19.90;53.60;;;;;;5000889;28;19929;-67
2022/03/23 09:51:51;;;;;;;;;;;19.80;54.40;;;;;;4987936;28;19913;-67
2022/03/23 09:54:16;;;;;;;;;;;20.40;53.60;;;;;;4982078;28;19914;-68
2022/03/23 09:56:42;;;;;;;;;;;20.50;52.50;;;;;;5011886;28;19917;-66
2022/03/23 09:59:07;;;;;;;;;;;21.10;51.90;;;;;;5011541;28;20005;-66
2022/03/23 10:01:59;;;;;;;;;;;21.30;52.10;;;;;;5010748;28;19949;-67
2022/03/23 10:04:24;;;;;;;;;;;21.70;50.90;;;;;;5010341;28;19917;-66
2022/03/23 10:06:53;;;;;;;;;;;21.90;49.80;;;;;;4993803;28;20255;-68
2022/03/23 10:09:54;;;;;;;;;;;22.20;49.90;;;;;;4993784;28;20023;-66
2022/03/23 10:12:37;;;;;;;;;;;22.50;49.90;;;;;;4915941;29;19975;-68
2022/03/23 10:15:29;;;;;;;;;;;22.30;49.30;;;;;;5004231;28;19916;-67
2022/03/23 10:18:13;;;;;;;;;;;22.70;50.00;;;;;;4992892;28;19910;-67
2022/03/23 10:20:39;;;;;;;;;;;23.20;48.80;;;;;;4993282;28;19932;-67
2022/03/23 10:23:05;;;;;;;;;;;23.40;47.40;;;;;;5026605;28;19909;-67
2022/03/23 10:25:30;;;;;;;;;;;22.60;48.40;;;;;;4993242;28;19921;-67
2022/03/23 10:27:56;;;;;;;;;;;23.00;47.90;;;;;;5011211;28;20087;-67
2022/03/23 10:30:31;;;;;;;;;;;22.40;47.30;;;;;;5011004;28;20221;-68
2022/03/23 10:32:57;;;;;;;;;;;23.00;47.90;;;;;;4993540;28;19913;-67
2022/03/23 10:35:22;;;;;;;;;;;23.50;45.70;;;;;;5010866;28;19924;-68
2022/03/23 10:37:48;;;;;;;;;;;23.10;46.30;;;;;;5011094;28;19909;-67
2022/03/23 10:40:17;;;;;;;;;;;23.30;46.90;;;;;;5011526;28;19910;-67
2022/03/23 10:42:43;;;;;;;;;;;23.00;45.70;;;;;;4992756;28;20650;-67
2022/03/23 10:45:15;;;;;;;;;;;23.20;46.20;;;;;;5011042;28;19924;-67
2022/03/23 10:47:41;;;;;;;;;;;23.40;46.40;;;;;;5010319;28;19910;-68
2022/03/23 10:50:08;;;;;;;;;;;24.10;45.70;;;;;;5025851;28;20040;-67
2022/03/23 10:52:34;;;;;;;;;;;24.20;44.60;;;;;;5010409;28;19964;-67
2022/03/23 10:55:00;;;;;;;;;;;24.30;45.00;;;;;;4993303;28;19939;-66
2022/03/23 10:57:37;;;;;;;;;;;24.70;44.30;;;;;;5010405;28;20295;-67
2022/03/23 11:00:03;;;;;;;;;;;24.50;44.80;;;;;;4993127;28;19920;-66
2022/03/23 11:02:28;;;;;;;;;;;25.00;44.70;;;;;;4992383;28;20004;-67
2022/03/23 11:04:56;;;;;;;;;;;24.70;43.80;;;;;;5010915;28;19917;-67
2022/03/23 11:07:28;;;;;;;;;;;25.20;43.90;;;;;;5010950;28;19975;-67
2022/03/23 11:18:08;;;;;;;;;;;25.60;43.00;;;;;;5011029;28;19917;-66
2022/03/23 11:20:45;;;;;;;;;;;25.70;42.90;;;;;;5010337;28;19920;-67
2022/03/23 11:23:24;;;;;;;;;;;26.30;42.50;;;;;;4992887;28;20267;-67
2022/03/23 11:25:53;;;;;;;;;;;25.70;42.20;;;;;;5010398;28;19922;-68
2022/03/23 11:28:20;;;;;;;;;;;25.90;42.40;;;;;;5012748;28;20355;-67
2022/03/23 11:30:47;;;;;;;;;;;25.90;41.30;;;;;;4996151;28;19913;-68
2022/03/23 11:33:21;;;;;;;;;;;26.00;41.90;;;;;;5013862;28;19966;-68
2022/03/23 11:35:48;;;;;;;;;;;25.70;41.70;;;;;;4995944;28;19920;-67
2022/03/23 11:38:14;;;;;;;;;;;26.00;41.90;;;;;;4996328;28;19913;-67
2022/03/23 11:40:44;;;;;;;;;;;25.80;40.90;;;;;;5013591;28;19910;-67
2022/03/23 11:43:14;;;;;;;;;;;24.70;40.90;;;;;;4996564;28;19909;-68
2022/03/23 11:45:41;;;;;;;;;;;24.90;40.40;;;;;;4995559;28;19918;-68
2022/03/23 11:48:09;;;;;;;;;;;24.30;41.10;;;;;;4995977;28;20008;-66
2022/03/23 11:50:35;;;;;;;;;;;24.90;41.50;;;;;;4995671;28;20207;-67
2022/03/23 11:53:13;;;;;;;;;;;26.10;41.50;;;;;;4996057;28;19921;-67
2022/03/23 11:55:45;;;;;;;;;;;26.50;40.60;;;;;;4995600;28;19937;-67
2022/03/23 11:58:23;;;;;;;;;;;26.90;40.90;;;;;;5014177;28;20308;-68
2022/03/23 12:00:50;;;;;;;;;;;27.50;39.60;;;;;;5013518;28;19909;-65
2022/03/23 12:03:35;;;;;;;;;;;26.80;39.60;;;;;;4996115;28;19944;-67
2022/03/23 12:06:09;;;;;;;;;;;27.10;39.40;;;;;;4995113;28;19918;-66
2022/03/23 12:08:54;;;;;;;;;;;27.60;39.60;;;;;;5013158;28;19917;-67
2022/03/23 12:11:44;;;;;;;;;;;27.90;38.20;;;;;;5013373;28;20262;-67
2022/03/23 12:14:28;;;;;;;;;;;26.80;38.10;;;;;;4996135;28;20072;-67
2022/03/23 12:16:53;;;;;;;;;;;26.90;38.20;;;;;;4995735;28;19961;-67
2022/03/23 12:19:24;;;;;;;;;;;26.90;37.60;;;;;;4995813;28;19916;-67
2022/03/23 12:21:53;;;;;;;;;;;26.70;38.10;;;;;;5012277;28;19914;-66
2022/03/23 12:24:28;;;;;;;;;;;26.70;38.20;;;;;;4995119;28;19973;-67
2022/03/23 12:26:56;;;;;;;;;;;26.80;38.20;;;;;;4994446;28;19925;-67
2022/03/23 12:29:26;;;;;;;;;;;27.40;38.50;;;;;;5013171;28;20004;-67
2022/03/23 12:32:02;;;;;;;;;;;27.10;37.10;;;;;;4994621;28;19909;-66
2022/03/23 12:34:28;;;;;;;;;;;26.70;38.40;;;;;;4994920;28;19921;-68
2022/03/23 12:37:01;;;;;;;;;;;27.00;37.90;;;;;;5012451;28;19910;-66
2022/03/23 12:39:31;;;;;;;;;;;26.70;37.80;;;;;;4994409;28;20236;-67
2022/03/23 12:41:58;;;;;;;;;;;26.60;38.20;;;;;;4994540;28;19909;-67
2022/03/23 12:44:31;;;;;;;;;;;26.80;38.20;;;;;;4995161;28;20355;-66
2022/03/23 12:47:01;;;;;;;;;;;27.10;38.20;;;;;;5012740;28;19917;-67
2022/03/23 12:58:02;;;;;;;;;;;27.30;38.20;;;;;;5012244;28;20308;-67
2022/03/23 13:00:44;;;;;;;;;;;27.30;38.50;;;;;;4995202;28;20000;-66
2022/03/23 13:03:19;;;;;;;;;;;27.80;38.10;;;;;;4994659;28;19910;-67
2022/03/23 13:06:07;;;;;;;;;;;28.10;38.40;;;;;;4994320;28;19918;-67
2022/03/23 13:08:33;;;;;;;;;;;28.00;37.80;;;;;;4981190;28;19913;-67
2022/03/23 13:11:03;;;;;;;;;;;27.80;37.90;;;;;;5012604;28;19932;-66
2022/03/23 13:13:29;;;;;;;;;;;27.50;38.00;;;;;;4994658;28;19909;-66
2022/03/23 13:15:55;;;;;;;;;;;26.70;37.90;;;;;;4994223;28;19925;-67
2022/03/23 13:18:28;;;;;;;;;;;26.10;38.00;;;;;;4994581;28;19932;-67
2022/03/23 13:20:57;;;;;;;;;;;25.70;38.40;;;;;;4993889;28;20243;-66
2022/03/23 13:23:23;;;;;;;;;;;26.20;38.70;;;;;;5012127;28;19979;-66
2022/03/23 13:26:02;;;;;;;;;;;26.70;38.80;;;;;;5011669;28;19926;-67
2022/03/23 13:28:28;;;;;;;;;;;26.70;38.60;;;;;;4990705;28;19922;-66
2022/03/23 13:30:57;;;;;;;;;;;26.90;38.80;;;;;;4990579;28;19967;-67
2022/03/23 13:33:23;;;;;;;;;;;26.60;38.10;;;;;;4992618;28;19917;-67
2022/03/23 13:35:50;;;;;;;;;;;26.60;39.20;;;;;;4991602;28;20051;-66
2022/03/23 13:38:15;;;;;;;;;;;26.50;38.80;;;;;;4991810;28;19910;-67
2022/03/23 13:43:26;;;;;;;;;;;26.80;39.00;;;;;;4991972;28;20047;-66
2022/03/23 13:45:53;;;;;;;;;;;27.10;38.70;;;;;;4989722;28;20017;-68
2022/03/23 13:48:19;;;;;;;;;;;27.30;38.50;;;;;;4990504;28;19993;-68
2022/03/23 13:50:44;;;;;;;;;;;27.40;38.90;;;;;;4989669;28;20095;-68
2022/03/23 13:53:13;;;;;;;;;;;27.10;38.10;;;;;;4990575;28;19916;-67
2022/03/23 13:55:39;;;;;;;;;;;26.80;38.20;;;;;;4990261;28;19966;-67
2022/03/23 13:58:06;;;;;;;;;;;26.60;38.60;;;;;;4992013;28;19909;-67
2022/03/23 14:00:32;;;;;;;;;;;26.60;38.40;;;;;;4990597;28;19917;-67
2022/03/23 14:02:57;;;;;;;;;;;26.80;38.70;;;;;;4990176;28;19920;-67
2022/03/23 14:05:28;;;;;;;;;;;26.90;38.50;;;;;;4990350;28;20340;-68
2022/03/23 14:07:56;;;;;;;;;;;26.10;39.00;;;;;;4990007;28;19910;-67
2022/03/23 14:10:28;;;;;;;;;;;26.10;38.50;;;;;;4990258;28;19965;-67
2022/03/23 14:12:56;;;;;;;;;;;26.80;39.20;;;;;;4989728;28;20422;-67
2022/03/23 14:15:22;;;;;;;;;;;27.30;38.90;;;;;;4991741;28;20008;-67
2022/03/23 14:17:47;;;;;;;;;;;27.80;38.90;;;;;;4991368;28;19961;-67
2022/03/23 14:20:13;;;;;;;;;;;27.70;38.20;;;;;;4990493;28;20439;-67
2022/03/23 14:22:38;;;;;;;;;;;27.80;38.90;;;;;;4989427;28;19917;-67
2022/03/23 14:25:04;;;;;;;;;;;28.00;38.50;;;;;;4989766;28;19939;-68
2022/03/23 14:27:34;;;;;;;;;;;27.80;38.40;;;;;;4990613;28;19926;-67
2022/03/23 14:32:34;;;;;;;;;;;27.90;38.00;;;;;;4991857;28;19910;-67
2022/03/23 14:35:08;;;;;;;;;;;27.60;37.90;;;;;;4991116;28;19910;-67
2022/03/23 14:37:39;;;;;;;;;;;27.20;38.00;;;;;;4990243;28;20343;-67
2022/03/23 14:40:24;;;;;;;;;;;27.10;38.40;;;;;;4991246;28;19910;-68
2022/03/23 14:42:50;;;;;;;;;;;27.20;37.90;;;;;;4989653;28;19910;-68
2022/03/23 14:45:31;;;;;;;;;;;26.60;38.60;;;;;;4990152;28;19918;-66
2022/03/23 14:47:58;;;;;;;;;;;26.80;38.10;;;;;;4989185;28;20194;-68
2022/03/23 14:50:24;;;;;;;;;;;26.40;38.10;;;;;;4991184;28;19941;-67
2022/03/23 14:52:50;;;;;;;;;;;26.40;38.30;;;;;;4989340;28;19910;-68
2022/03/23 14:55:16;;;;;;;;;;;26.40;38.60;;;;;;4990891;28;19939;-68
2022/03/23 14:57:42;;;;;;;;;;;26.70;38.40;;;;;;4989270;28;19918;-67
2022/03/23 15:00:07;;;;;;;;;;;26.70;38.70;;;;;;4991126;28;19910;-69
2022/03/23 15:02:34;;;;;;;;;;;26.70;38.90;;;;;;4992375;28;19910;-67